Dyer, Tennessee
Current Conditions -  °F | °C
As of 7:15 PM on Saturday 25 Oct 2014 (Local Time) from KUCY Reporting Station
Clear Clear  
Wind Chill: 19°   Ceiling: Unl
Heat Index: 19°   Visibility: 10mi
Dew Point: 16°   Wind: 0mph
Humidity: 83%   Direction: NA
Pressure: 30.01"   Gusts: NA
Location:  36.07°N, 88.99°W
Report Text: KUCY 260015Z AUTO 00000KT 10SM CLR 19/16 A3001 RMK
Loading
Personal Weather Stations






























Interactive Weather Map
Tropical Storm Tracking
New forecast layout! Learn more

10-Day Weather Forecast

Advertisements
Track Severe Weather on mobile